Time;durP1;ratioP1;P1;durP2;ratioP2;P2;SDS_P1;SDS_P2;PMS_P1;PMS_P2;Temp;Humidity;BMP_temperature;BMP_pressure;BME280_temperature;BME280_humidity;BME280_pressure;Samples;Min_cycle;Max_cycle;Signal;HPM_P1;HPM_P2
2021/10/17 00:02:13;;;;;;;2.33;1.60;;;;;;;13.90;67.76;99804.31;5052351;28;20021;-49
2021/10/17 00:04:38;;;;;;;2.13;1.65;;;;;;;14.05;67.74;99807.44;5053730;28;20104;-47
2021/10/17 00:07:04;;;;;;;1.70;1.40;;;;;;;13.93;67.91;99806.53;5053505;28;20021;-48
2021/10/17 00:09:29;;;;;;;1.50;1.40;;;;;;;14.12;67.00;99804.66;5053788;28;20025;-49
2021/10/17 00:11:55;;;;;;;4.00;1.60;;;;;;;13.63;68.41;99801.94;5053681;28;20124;-48
2021/10/17 00:14:20;;;;;;;2.13;1.70;;;;;;;13.81;68.15;99806.47;5053588;28;20029;-50
2021/10/17 00:16:45;;;;;;;2.00;1.60;;;;;;;13.83;67.99;99803.59;5053676;28;20090;-48
2021/10/17 00:19:11;;;;;;;2.38;1.40;;;;;;;13.68;68.71;99809.28;5053399;28;20657;-49
2021/10/17 00:21:36;;;;;;;3.85;1.48;;;;;;;13.45;69.64;99807.25;5053463;28;20036;-47
2021/10/17 00:24:02;;;;;;;1.88;1.50;;;;;;;13.56;69.42;99809.22;5053675;28;20028;-47
2021/10/17 00:26:27;;;;;;;1.92;1.60;;;;;;;13.67;69.28;99802.31;5053342;28;20048;-47
2021/10/17 00:28:53;;;;;;;2.80;2.00;;;;;;;13.93;67.83;99806.53;5053246;28;20036;-47
2021/10/17 00:31:18;;;;;;;1.60;1.33;;;;;;;13.57;68.33;99804.69;5053371;28;20071;-47
2021/10/17 00:33:44;;;;;;;2.95;1.50;;;;;;;13.78;68.29;99806.91;5053534;28;20041;-48
2021/10/17 00:36:10;;;;;;;6.57;2.60;;;;;;;13.73;68.90;99803.25;5052998;28;20387;-47
2021/10/17 00:38:35;;;;;;;3.10;1.50;;;;;;;13.76;69.24;99808.19;5053127;28;20036;-47
2021/10/17 00:41:00;;;;;;;2.47;1.65;;;;;;;13.80;68.17;99806.69;5052674;28;20037;-48
2021/10/17 00:43:26;;;;;;;1.95;1.65;;;;;;;13.57;68.87;99810.84;5052979;28;20029;-50
2021/10/17 00:45:52;;;;;;;1.60;1.40;;;;;;;13.62;69.00;99807.50;5053276;28;20052;-48
2021/10/17 00:48:17;;;;;;;3.28;1.63;;;;;;;13.72;68.65;99815.03;5052784;28;20138;-49
2021/10/17 00:50:42;;;;;;;1.67;1.40;;;;;;;13.71;69.05;99811.53;5052678;28;20036;-49
2021/10/17 00:53:08;;;;;;;1.90;1.48;;;;;;;13.77;69.31;99815.19;5051228;28;20413;-48
2021/10/17 00:55:34;;;;;;;3.55;1.60;;;;;;;13.80;68.82;99812.03;5052740;28;20051;-47
2021/10/17 00:58:01;;;;;;;1.90;1.55;;;;;;;13.78;69.13;99817.59;5052591;28;20024;-48
2021/10/17 01:00:26;;;;;;;2.40;1.40;;;;;;;13.47;69.94;99818.56;5052488;28;20230;-50
2021/10/17 01:02:52;;;;;;;1.63;1.50;;;;;;;13.62;69.76;99821.69;5052738;28;20396;-50
2021/10/17 01:05:18;;;;;;;2.53;1.52;;;;;;;13.72;68.61;99813.16;5052942;28;20369;-50
2021/10/17 01:07:44;;;;;;;1.90;1.52;;;;;;;13.76;68.26;99811.66;5052009;28;20021;-47
2021/10/17 01:10:10;;;;;;;2.08;1.70;;;;;;;13.66;68.83;99811.38;5052785;28;20524;-48
2021/10/17 01:12:35;;;;;;;1.60;1.40;;;;;;;13.77;68.61;99813.31;5052427;28;20053;-49
2021/10/17 01:15:01;;;;;;;1.80;1.50;;;;;;;13.62;69.11;99811.00;5052205;28;20098;-48
2021/10/17 01:17:27;;;;;;;2.60;1.60;;;;;;;13.76;68.18;99813.53;5052157;28;20100;-47
2021/10/17 01:19:52;;;;;;;1.67;1.35;;;;;;;13.70;68.31;99815.22;5052451;28;20032;-47
2021/10/17 01:22:24;;;;;;;2.35;1.58;;;;;;;13.72;68.17;99813.16;5052288;28;20102;-47
2021/10/17 01:24:51;;;;;;;2.03;1.35;;;;;;;13.48;68.53;99810.31;5052329;28;20116;-47
2021/10/17 01:27:16;;;;;;;1.90;1.65;;;;;;;13.58;68.74;99812.47;5051976;28;20096;-47
2021/10/17 01:29:42;;;;;;;1.70;1.50;;;;;;;13.52;69.42;99812.53;5051927;28;20435;-46
2021/10/17 01:32:07;;;;;;;2.10;1.55;;;;;;;13.76;68.06;99814.34;5052296;28;20396;-47
2021/10/17 01:34:32;;;;;;;2.15;1.50;;;;;;;13.58;68.79;99820.50;5051020;28;20032;-48
2021/10/17 01:36:58;;;;;;;1.95;1.48;;;;;;;13.55;68.97;99822.78;5052117;28;20025;-50
2021/10/17 01:39:23;;;;;;;1.63;1.40;;;;;;;13.65;68.12;99813.25;5051733;28;20037;-47
2021/10/17 01:41:49;;;;;;;3.33;1.45;;;;;;;13.61;68.41;99814.72;5052003;28;20032;-49
2021/10/17 01:44:44;;;;;;;2.15;1.60;;;;;;;13.66;68.45;99814.03;5051603;28;20044;-47
2021/10/17 01:47:10;;;;;;;1.80;1.50;;;;;;;13.68;67.80;99818.13;5042579;28;20032;-49
2021/10/17 01:49:35;;;;;;;2.63;1.40;;;;;;;13.73;67.92;99814.81;5051903;28;20028;-48
2021/10/17 01:52:01;;;;;;;1.85;1.40;;;;;;;13.68;68.29;99811.97;5051540;28;20039;-47
2021/10/17 01:54:27;;;;;;;2.20;1.38;;;;;;;13.81;67.74;99816.38;5051762;28;20033;-47
2021/10/17 01:56:52;;;;;;;2.50;1.40;;;;;;;13.64;67.98;99805.44;5051757;28;20029;-47
2021/10/17 01:59:17;;;;;;;1.63;1.30;;;;;;;13.75;67.82;99814.59;5051701;28;20033;-47
2021/10/17 02:01:44;;;;;;;1.85;1.45;;;;;;;13.80;67.29;99818.22;5051469;28;20099;-50
2021/10/17 02:04:10;;;;;;;2.45;1.10;;;;;;;13.73;67.81;99819.31;5051540;28;20029;-47
2021/10/17 02:06:35;;;;;;;1.63;1.33;;;;;;;13.87;67.73;99810.91;5051592;28;20023;-47
2021/10/17 02:09:01;;;;;;;1.73;1.40;;;;;;;13.89;67.74;99813.38;5051332;28;20025;-48
2021/10/17 02:11:27;;;;;;;1.83;1.30;;;;;;;13.82;67.54;99813.47;5051792;28;20358;-50
2021/10/17 02:13:52;;;;;;;1.60;1.30;;;;;;;13.64;68.40;99811.59;5051346;28;20444;-48
2021/10/17 02:16:18;;;;;;;1.92;1.30;;;;;;;13.77;67.68;99816.00;5051003;28;20025;-49
2021/10/17 02:18:43;;;;;;;1.48;1.38;;;;;;;13.78;67.79;99819.47;5050506;28;20185;-50
2021/10/17 02:21:09;;;;;;;1.38;1.20;;;;;;;13.81;67.60;99816.38;5050803;28;20077;-48
2021/10/17 02:23:34;;;;;;;1.67;1.48;;;;;;;13.65;67.77;99812.41;5051280;28;20067;-49
2021/10/17 02:26:00;;;;;;;2.47;1.30;;;;;;;13.66;67.65;99817.53;5051167;28;20368;-48
2021/10/17 02:28:25;;;;;;;2.03;1.38;;;;;;;13.75;67.29;99817.25;5051193;28;20020;-50
2021/10/17 02:30:51;;;;;;;1.58;1.48;;;;;;;13.82;67.29;99821.50;5051296;28;20032;-48
2021/10/17 02:33:16;;;;;;;1.95;1.42;;;;;;;13.72;67.40;99815.81;5050929;28;20037;-49
2021/10/17 02:35:42;;;;;;;2.05;1.58;;;;;;;13.72;67.46;99813.16;5051083;28;20044;-47
2021/10/17 02:38:07;;;;;;;3.17;1.77;;;;;;;13.90;67.06;99815.03;5050752;28;20044;-47
2021/10/17 02:40:33;;;;;;;2.00;1.63;;;;;;;13.64;67.22;99819.63;5050685;28;20381;-47
2021/10/17 02:42:58;;;;;;;2.50;1.70;;;;;;;13.48;67.23;99809.50;5050938;28;20028;-48
2021/10/17 02:45:23;;;;;;;1.67;1.58;;;;;;;13.51;67.83;99821.59;5050804;28;20373;-47
2021/10/17 02:47:49;;;;;;;2.05;1.50;;;;;;;13.64;67.19;99811.59;5058913;28;20025;-47
2021/10/17 02:50:15;;;;;;;2.95;1.85;;;;;;;13.61;67.61;99811.22;5070809;28;20039;-51
2021/10/17 02:52:40;;;;;;;1.65;1.48;;;;;;;13.79;66.75;99818.44;5070548;28;20031;-47
2021/10/17 02:55:06;;;;;;;1.80;1.60;;;;;;;13.91;66.71;99815.84;5070922;28;20310;-48
2021/10/17 02:57:31;;;;;;;2.13;1.58;;;;;;;13.82;66.44;99826.00;5070964;28;20021;-47
2021/10/17 02:59:57;;;;;;;2.03;1.60;;;;;;;13.49;67.39;99825.31;5070803;28;20032;-48
2021/10/17 03:02:22;;;;;;;2.95;1.63;;;;;;;13.71;66.60;99824.06;5070838;28;20036;-51
2021/10/17 03:04:48;;;;;;;2.28;1.73;;;;;;;13.74;66.87;99832.47;5070851;28;20024;-48
2021/10/17 03:07:13;;;;;;;2.47;2.00;;;;;;;13.85;66.03;99829.06;5070708;28;20156;-48
2021/10/17 03:09:39;;;;;;;1.83;1.70;;;;;;;13.82;66.25;99829.53;5071095;28;20024;-50
2021/10/17 03:12:04;;;;;;;2.05;1.70;;;;;;;13.89;66.02;99835.59;5070463;28;20460;-47
2021/10/17 03:14:30;;;;;;;1.83;1.50;;;;;;;13.30;67.94;99837.81;5069696;28;20387;-47
2021/10/17 03:16:55;;;;;;;1.88;1.63;;;;;;;13.56;67.32;99837.81;5070798;28;20020;-48
2021/10/17 03:19:21;;;;;;;2.88;1.80;;;;;;;13.65;67.44;99834.63;5070511;28;20021;-51
2021/10/17 03:21:46;;;;;;;2.42;1.80;;;;;;;13.85;66.91;99847.78;5070620;28;20131;-49
2021/10/17 03:24:12;;;;;;;2.17;1.80;;;;;;;13.74;67.18;99845.84;5070673;28;20102;-47
2021/10/17 03:26:37;;;;;;;3.38;1.75;;;;;;;13.69;67.40;99845.72;5070657;28;20074;-49
2021/10/17 03:29:03;;;;;;;2.00;1.80;;;;;;;13.83;66.76;99843.69;5070457;28;20371;-49
2021/10/17 03:31:29;;;;;;;2.63;1.83;;;;;;;13.73;67.25;99841.53;5072778;28;20173;-48
2021/10/17 03:33:54;;;;;;;2.50;1.73;;;;;;;13.82;67.34;99839.38;5067412;28;20374;-51
2021/10/17 03:36:20;;;;;;;2.05;1.60;;;;;;;14.08;66.09;99844.44;5054186;28;20456;-49
2021/10/17 03:38:45;;;;;;;2.10;1.70;;;;;;;13.59;67.28;99807.94;5054028;28;20055;-48
2021/10/17 03:41:13;;;;;;;1.67;1.48;;;;;;;14.00;66.15;99843.94;5054232;28;20028;-51
2021/10/17 03:43:40;;;;;;;3.35;1.60;;;;;;;13.93;66.86;99841.31;5054282;28;20032;-49
2021/10/17 03:46:06;;;;;;;1.95;1.60;;;;;;;13.78;67.16;99846.22;5054080;28;20029;-50
2021/10/17 03:48:32;;;;;;;3.75;1.52;;;;;;;13.72;67.48;99839.09;5069609;28;20029;-51
2021/10/17 03:50:57;;;;;;;2.55;1.60;;;;;;;13.61;67.83;99851.31;5074026;28;20360;-49
2021/10/17 03:53:23;;;;;;;1.67;1.40;;;;;;;13.75;67.20;99852.84;5074039;28;20024;-48
2021/10/17 03:55:48;;;;;;;2.05;1.60;;;;;;;13.75;67.25;99850.16;5074055;28;20079;-48
2021/10/17 03:58:14;;;;;;;1.90;1.40;;;;;;;13.66;67.39;99848.81;5073511;28;20384;-48
2021/10/17 04:00:39;;;;;;;1.60;1.50;;;;;;;13.93;66.67;99851.22;5068903;28;20039;-48
2021/10/17 04:03:05;;;;;;;2.00;1.70;;;;;;;13.74;67.21;99858.41;5053713;28;20397;-50
2021/10/17 04:05:30;;;;;;;2.22;1.52;;;;;;;13.85;66.69;99855.81;5053233;28;20036;-49
2021/10/17 04:07:55;;;;;;;2.25;1.58;;;;;;;13.72;67.52;99860.47;5053514;28;20449;-49
2021/10/17 04:10:21;;;;;;;1.90;1.50;;;;;;;13.89;66.60;99850.84;5052326;28;20370;-47
2021/10/17 04:12:46;;;;;;;2.10;1.65;;;;;;;14.00;66.33;99870.69;5051817;28;20162;-48
2021/10/17 04:15:12;;;;;;;5.18;3.38;;;;;;;13.85;66.85;99866.50;5052531;28;20044;-48
2021/10/17 04:17:37;;;;;;;11.00;6.88;;;;;;;13.66;67.42;99867.53;5052015;28;20631;-48
2021/10/17 04:20:04;;;;;;;5.25;2.90;;;;;;;13.80;67.23;99870.88;5053074;28;20428;-49
2021/10/17 04:22:29;;;;;;;6.78;4.32;;;;;;;13.79;67.57;99864.72;5053029;28;20082;-47
2021/10/17 04:24:54;;;;;;;3.08;1.80;;;;;;;13.83;67.17;99863.25;5053148;28;20025;-47
2021/10/17 04:27:20;;;;;;;4.00;1.75;;;;;;;13.88;66.59;99868.75;5052491;28;20470;-48
2021/10/17 04:29:45;;;;;;;1.95;1.63;;;;;;;13.78;67.87;99870.28;5053543;28;20025;-49
2021/10/17 04:32:11;;;;;;;2.30;1.80;;;;;;;13.83;67.18;99873.13;5053104;28;20051;-48
2021/10/17 04:34:36;;;;;;;1.60;1.50;;;;;;;13.91;66.71;99882.72;5053191;28;20125;-49
2021/10/17 04:37:02;;;;;;;1.70;1.50;;;;;;;13.78;66.84;99880.97;5053307;28;20032;-48
2021/10/17 04:39:27;;;;;;;2.03;1.60;;;;;;;13.60;67.76;99882.59;5053101;28;20029;-48
2021/10/17 04:41:53;;;;;;;2.38;1.70;;;;;;;13.68;67.95;99881.50;5052035;28;20044;-49
2021/10/17 04:44:18;;;;;;;2.97;1.80;;;;;;;13.58;67.71;99898.03;5053121;28;20039;-48
2021/10/17 04:46:44;;;;;;;2.03;1.50;;;;;;;13.72;67.13;99893.38;5052797;28;20052;-48
2021/10/17 04:49:09;;;;;;;2.28;1.75;;;;;;;13.70;67.62;99906.16;5052931;28;20025;-50
2021/10/17 04:51:35;;;;;;;2.08;1.70;;;;;;;13.74;67.41;99906.53;5052642;28;20032;-52
2021/10/17 04:54:00;;;;;;;1.75;1.65;;;;;;;13.55;67.96;99908.34;5052701;28;20028;-49
2021/10/17 04:56:26;;;;;;;2.22;1.73;;;;;;;13.49;68.25;99912.72;5052728;28;20025;-48
2021/10/17 04:58:51;;;;;;;3.10;1.77;;;;;;;13.44;68.69;99918.72;5051510;28;20037;-50
2021/10/17 05:01:17;;;;;;;4.13;3.17;;;;;;;13.75;67.36;99914.34;5052831;28;20033;-50
2021/10/17 05:03:42;;;;;;;6.85;5.13;;;;;;;13.64;67.77;99923.09;5051544;28;20461;-49
2021/10/17 05:06:10;;;;;;;4.13;3.05;;;;;;;13.71;66.96;99923.84;5052584;28;20033;-46
2021/10/17 05:08:36;;;;;;;6.30;4.43;;;;;;;13.81;67.30;99924.16;5052709;28;20029;-40
2021/10/17 05:11:01;;;;;;;4.60;2.58;;;;;;;13.50;68.25;99930.41;5052533;28;20516;-39
2021/10/17 05:13:27;;;;;;;4.35;2.13;;;;;;;13.60;68.52;99937.94;5052411;28;20033;-39
2021/10/17 05:15:52;;;;;;;2.45;2.03;;;;;;;13.75;67.80;99935.75;5052322;28;20496;-39
2021/10/17 05:18:18;;;;;;;3.38;2.30;;;;;;;13.97;67.71;99935.31;5052211;28;20017;-38
2021/10/17 05:20:43;;;;;;;2.97;2.10;;;;;;;13.89;66.99;99934.56;5050804;28;20029;-38
2021/10/17 05:23:11;;;;;;;3.08;1.98;;;;;;;13.86;67.33;99934.22;5052588;28;20035;-38
2021/10/17 05:25:36;;;;;;;2.40;2.08;;;;;;;13.83;67.56;99938.13;5052297;28;20028;-38
2021/10/17 05:28:02;;;;;;;2.53;1.98;;;;;;;13.97;66.52;99941.50;5052223;28;20029;-38
2021/10/17 05:30:27;;;;;;;3.03;2.10;;;;;;;13.72;67.98;99956.75;5052568;28;20025;-38
2021/10/17 05:32:53;;;;;;;3.53;1.95;;;;;;;13.41;68.74;99947.75;5052120;28;20044;-38
2021/10/17 05:35:18;;;;;;;3.13;2.15;;;;;;;13.67;68.41;99955.56;5052262;28;20033;-38
2021/10/17 05:37:44;;;;;;;2.10;1.77;;;;;;;13.85;67.46;99959.31;5051828;28;20496;-38
2021/10/17 05:40:09;;;;;;;2.90;2.20;;;;;;;13.77;67.62;99952.38;5052106;28;20029;-38
2021/10/17 05:42:35;;;;;;;2.95;2.20;;;;;;;13.75;67.48;99959.00;5052162;28;20028;-38
2021/10/17 05:45:00;;;;;;;4.97;2.30;;;;;;;13.80;67.38;99953.78;5051684;28;20412;-38
2021/10/17 05:47:26;;;;;;;2.85;2.10;;;;;;;13.61;67.81;99966.28;5051711;28;20086;-39
2021/10/17 05:49:51;;;;;;;4.65;2.10;;;;;;;13.58;68.04;99967.56;5051520;28;20033;-39
2021/10/17 05:52:17;;;;;;;2.97;2.00;;;;;;;13.79;67.21;99973.56;5052064;28;20040;-39
2021/10/17 05:54:42;;;;;;;3.33;2.28;;;;;;;13.80;67.10;99975.19;5051635;28;20028;-38
2021/10/17 05:57:08;;;;;;;2.63;2.10;;;;;;;14.01;65.92;99984.69;5052267;28;20021;-38
2021/10/17 05:59:33;;;;;;;8.27;5.18;;;;;;;14.06;66.33;99985.66;5051702;28;20086;-39
2021/10/17 06:01:59;;;;;;;8.23;5.28;;;;;;;14.24;65.45;99990.22;5051655;28;20436;-38
2021/10/17 06:04:24;;;;;;;5.43;2.40;;;;;;;14.03;66.60;99996.81;5051589;28;20036;-39
2021/10/17 06:06:50;;;;;;;5.85;2.20;;;;;;;13.96;65.88;99998.72;5051792;28;20025;-38
2021/10/17 06:09:15;;;;;;;2.40;2.00;;;;;;;13.95;66.13;100002.44;5051385;28;20036;-39
2021/10/17 06:11:41;;;;;;;2.30;2.00;;;;;;;13.99;66.12;100006.31;5051632;28;20408;-38
2021/10/17 06:14:06;;;;;;;3.38;2.17;;;;;;;14.21;65.95;100008.59;5051580;28;20449;-38
2021/10/17 06:16:32;;;;;;;2.72;2.10;;;;;;;14.27;65.67;100015.72;5051073;28;20032;-39
2021/10/17 06:18:58;;;;;;;4.22;2.40;;;;;;;14.06;66.31;100006.25;5050963;28;20059;-38
2021/10/17 06:21:23;;;;;;;5.88;2.42;;;;;;;14.14;66.04;100011.31;5048089;28;20454;-39
2021/10/17 06:23:48;;;;;;;3.17;2.40;;;;;;;14.41;65.30;100019.94;5034324;28;20029;-38
2021/10/17 06:26:14;;;;;;;3.40;2.22;;;;;;;14.37;65.12;100021.38;5037631;28;20489;-39
2021/10/17 06:28:39;;;;;;;2.78;2.10;;;;;;;14.08;65.81;100020.22;5047395;28;20036;-39
2021/10/17 06:31:05;;;;;;;2.90;2.30;;;;;;;14.92;63.62;100014.44;5031066;28;20041;-39
2021/10/17 06:33:30;;;;;;;3.53;2.25;;;;;;;14.80;63.01;100015.19;5030474;28;20091;-37
2021/10/17 06:35:56;;;;;;;3.05;2.40;;;;;;;14.54;63.78;100012.78;5030402;28;20029;-38
2021/10/17 06:38:21;;;;;;;3.22;2.30;;;;;;;14.79;63.69;100018.91;5030512;28;20036;-38
2021/10/17 06:40:47;;;;;;;3.95;2.40;;;;;;;15.04;63.16;100018.81;5030538;28;20037;-38
2021/10/17 06:43:12;;;;;;;2.92;2.60;;;;;;;14.72;64.48;100022.72;5030465;28;20234;-38
2021/10/17 06:45:37;;;;;;;2.85;2.33;;;;;;;15.00;63.42;100022.16;5030598;28;20064;-39
2021/10/17 06:48:03;;;;;;;3.70;2.55;;;;;;;15.47;62.50;100025.03;5041595;28;20035;-39
2021/10/17 06:50:29;;;;;;;3.67;2.60;;;;;;;15.17;63.19;100025.03;5049773;28;20476;-39
2021/10/17 06:52:54;;;;;;;3.95;3.05;;;;;;;15.07;68.95;100027.44;5050156;28;20051;-39
2021/10/17 06:55:20;;;;;;;4.53;3.55;;;;;;;16.00;71.93;100031.47;5050099;28;20086;-40
2021/10/17 06:57:45;;;;;;;4.65;3.20;;;;;;;15.86;61.83;100033.56;5049730;28;20028;-39
2021/10/17 07:00:11;;;;;;;4.57;2.88;;;;;;;15.34;62.94;100027.91;5050093;28;20086;-39
2021/10/17 07:02:37;;;;;;;3.85;2.45;;;;;;;14.93;63.81;100026.78;5049759;28;20369;-39
2021/10/17 07:05:03;;;;;;;4.13;2.72;;;;;;;14.82;65.10;100036.41;5050199;28;20033;-37
2021/10/17 07:07:28;;;;;;;3.42;2.60;;;;;;;14.66;65.60;100032.47;5054548;28;20025;-38
2021/10/17 07:09:54;;;;;;;4.47;2.90;;;;;;;14.58;64.92;100027.38;5054163;28;20035;-39
2021/10/17 07:12:19;;;;;;;3.78;2.30;;;;;;;14.55;65.27;100042.03;5053972;28;20021;-38
2021/10/17 07:14:45;;;;;;;3.80;2.50;;;;;;;14.35;66.57;100049.44;5053952;28;20035;-51
2021/10/17 07:17:10;;;;;;;3.00;2.22;;;;;;;14.50;66.20;100049.06;5053975;28;20017;-49
2021/10/17 07:19:36;;;;;;;2.70;2.25;;;;;;;14.66;65.43;100052.03;5053725;28;20040;-48
2021/10/17 07:22:01;;;;;;;3.60;2.60;;;;;;;14.41;66.51;100046.69;5053705;28;20028;-49
2021/10/17 07:24:27;;;;;;;4.85;3.10;;;;;;;14.55;65.87;100052.72;5053662;28;20029;-49
2021/10/17 07:26:52;;;;;;;15.40;10.00;;;;;;;14.65;66.42;100054.91;5053718;28;20397;-49
2021/10/17 07:29:18;;;;;;;6.68;4.40;;;;;;;14.65;66.05;100057.59;5053510;28;20025;-48
2021/10/17 07:31:43;;;;;;;6.00;2.53;;;;;;;14.61;66.61;100056.41;5053623;28;20409;-48
2021/10/17 07:34:09;;;;;;;3.63;2.63;;;;;;;14.68;65.78;100051.81;5053877;28;20094;-49
2021/10/17 07:36:34;;;;;;;5.72;2.75;;;;;;;14.63;66.03;100051.66;5053477;28;20034;-47
2021/10/17 07:39:00;;;;;;;3.53;2.30;;;;;;;14.71;66.50;100056.69;5053595;28;20040;-48
2021/10/17 07:41:25;;;;;;;3.15;2.50;;;;;;;14.75;66.83;100054.41;5053500;28;20025;-48
2021/10/17 07:43:51;;;;;;;3.53;2.58;;;;;;;14.83;66.73;100059.44;5052256;28;20029;-47
2021/10/17 07:46:16;;;;;;;5.20;2.70;;;;;;;14.92;66.15;100051.94;5053513;28;20029;-50
2021/10/17 07:48:42;;;;;;;3.50;2.60;;;;;;;15.17;65.29;100062.56;5052678;28;20479;-47
2021/10/17 07:51:08;;;;;;;22.25;10.20;;;;;;;15.54;64.99;100054.44;5052741;28;20021;-47
2021/10/17 07:53:33;;;;;;;5.90;2.63;;;;;;;15.59;63.80;100058.06;5052981;28;20183;-48
2021/10/17 07:55:59;;;;;;;3.53;2.50;;;;;;;15.60;63.73;100056.19;5049949;28;20029;-50
2021/10/17 07:58:25;;;;;;;4.57;2.65;;;;;;;15.56;64.28;100055.84;5031804;28;20331;-50
2021/10/17 08:00:51;;;;;;;4.65;2.53;;;;;;;15.36;65.30;100063.34;5033167;28;20164;-48
2021/10/17 08:03:16;;;;;;;3.78;2.45;;;;;;;15.38;64.71;100063.94;5045178;28;20096;-47
2021/10/17 08:05:42;;;;;;;5.30;2.70;;;;;;;15.05;65.94;100049.91;5052633;28;20036;-46
2021/10/17 08:08:07;;;;;;;4.82;2.80;;;;;;;15.20;65.11;100064.78;5052306;28;20021;-48
2021/10/17 08:10:33;;;;;;;4.72;2.60;;;;;;;15.35;64.73;100059.84;5049973;28;20032;-48
2021/10/17 08:12:59;;;;;;;5.05;2.65;;;;;;;15.38;64.86;100066.59;5053062;28;20059;-46
2021/10/17 08:15:25;;;;;;;5.93;3.40;;;;;;;15.38;64.52;100067.44;5052756;28;20033;-50
2021/10/17 08:17:51;;;;;;;4.25;2.85;;;;;;;15.59;64.59;100062.59;5052823;28;20090;-47
2021/10/17 08:20:16;;;;;;;4.10;3.00;;;;;;;15.47;64.29;100067.94;5052820;28;20029;-47
2021/10/17 08:22:41;;;;;;;4.65;2.72;;;;;;;15.66;64.19;100063.34;5052623;28;20036;-48
2021/10/17 08:25:07;;;;;;;4.05;2.85;;;;;;;15.76;63.74;100063.63;5052333;28;20071;-48
2021/10/17 08:27:33;;;;;;;5.05;2.97;;;;;;;15.66;63.36;100060.66;5052875;28;20028;-47
2021/10/17 08:29:58;;;;;;;5.13;3.10;;;;;;;15.55;64.29;100064.91;5052218;28;20016;-48
2021/10/17 08:32:24;;;;;;;5.35;3.50;;;;;;;15.56;65.13;100065.75;5051531;28;20408;-46
2021/10/17 08:34:49;;;;;;;10.02;6.22;;;;;;;15.61;63.65;100066.72;5051929;28;20032;-47
2021/10/17 08:37:16;;;;;;;6.30;3.40;;;;;;;15.77;63.86;100064.44;5051352;28;20374;-48
2021/10/17 08:39:41;;;;;;;5.65;3.40;;;;;;;15.96;62.87;100068.69;5051283;28;20059;-49
2021/10/17 08:42:07;;;;;;;3.63;2.88;;;;;;;15.62;64.50;100062.97;5051238;28;20053;-48
2021/10/17 08:44:32;;;;;;;5.72;3.20;;;;;;;16.27;62.84;100061.34;5059127;28;20515;-49
2021/10/17 08:46:58;;;;;;;4.88;2.97;;;;;;;16.51;61.19;100064.88;5061802;28;20058;-48
2021/10/17 08:49:24;;;;;;;4.35;2.88;;;;;;;16.73;60.17;100050.81;5058782;28;20108;-47
2021/10/17 08:51:50;;;;;;;7.38;3.17;;;;;;;16.72;62.41;100065.31;5048969;28;20501;-50
2021/10/17 08:54:15;;;;;;;4.85;3.10;;;;;;;16.70;61.23;100062.84;5049651;28;20024;-46
2021/10/17 08:56:41;;;;;;;6.32;3.05;;;;;;;16.43;61.71;100057.16;5051150;28;20095;-47
2021/10/17 08:59:06;;;;;;;5.45;3.15;;;;;;;16.34;61.54;100061.25;5051174;28;20436;-47
2021/10/17 09:01:33;;;;;;;3.80;2.85;;;;;;;16.69;60.97;100063.91;5051327;28;20021;-48
2021/10/17 09:03:59;;;;;;;4.53;2.53;;;;;;;16.54;60.16;100059.00;5051073;28;20031;-47
2021/10/17 09:06:27;;;;;;;3.55;2.65;;;;;;;16.80;60.63;100065.75;5051069;28;20025;-48
2021/10/17 09:09:15;;;;;;;5.07;2.88;;;;;;;16.49;61.43;100050.03;5051055;28;20136;-45
2021/10/17 09:11:41;;;;;;;5.28;2.70;;;;;;;17.32;59.37;100058.72;5050992;28;20029;-45
2021/10/17 09:14:11;;;;;;;5.70;2.90;;;;;;;17.26;58.32;100063.19;5051256;28;20167;-48
2021/10/17 09:16:41;;;;;;;3.30;2.63;;;;;;;17.03;59.04;100055.22;5050775;28;20043;-47
2021/10/17 09:19:08;;;;;;;3.72;2.97;;;;;;;17.03;58.48;100061.41;5051075;28;20039;-48
2021/10/17 09:21:33;;;;;;;3.70;2.80;;;;;;;17.09;58.81;100052.38;5050888;28;20068;-48
2021/10/17 09:23:59;;;;;;;3.20;2.75;;;;;;;17.15;58.52;100058.69;5050402;28;20104;-47
2021/10/17 09:26:24;;;;;;;3.50;2.80;;;;;;;17.02;59.06;100049.03;5050869;28;20028;-48
2021/10/17 09:28:50;;;;;;;9.25;5.13;;;;;;;16.95;59.47;100027.66;5048669;28;20357;-47
2021/10/17 09:31:17;;;;;;;7.15;3.90;;;;;;;17.35;58.89;100056.38;5050205;28;20049;-47
2021/10/17 09:33:46;;;;;;;5.65;3.22;;;;;;;18.12;56.78;100051.53;5050720;28;20048;-50
2021/10/17 09:36:34;;;;;;;5.25;3.05;;;;;;;18.05;56.43;100051.69;5050557;28;20156;-47
2021/10/17 09:39:09;;;;;;;3.22;2.80;;;;;;;17.71;57.17;100050.84;5044664;28;20059;-47
2021/10/17 09:41:49;;;;;;;4.63;2.78;;;;;;;17.74;57.47;100050.34;5050459;28;20035;-47
2021/10/17 09:44:15;;;;;;;3.88;3.03;;;;;;;18.31;55.65;100052.88;5050161;28;20428;-47
2021/10/17 09:47:06;;;;;;;4.68;2.88;;;;;;;18.05;56.33;100061.63;5048896;28;20039;-48
2021/10/17 09:49:32;;;;;;;5.82;2.67;;;;;;;17.70;58.04;100052.69;5047893;28;20043;-47
2021/10/17 09:52:17;;;;;;;3.45;2.47;;;;;;;18.00;56.33;100054.31;5048747;28;20033;-47
2021/10/17 09:54:49;;;;;;;4.05;2.45;;;;;;;17.95;56.04;100044.28;5050282;28;20032;-47
2021/10/17 09:57:17;;;;;;;24.83;18.17;;;;;;;18.25;54.82;100053.06;5049854;28;20029;-47
2021/10/17 09:59:42;;;;;;;12.30;7.22;;;;;;;18.14;55.99;100058.31;5050028;28;20166;-38
2021/10/17 10:02:09;;;;;;;4.72;2.80;;;;;;;19.04;53.32;100041.19;5050214;28;20036;-38
2021/10/17 10:04:37;;;;;;;3.45;2.40;;;;;;;18.93;53.20;100048.38;5049895;28;20039;-38
2021/10/17 10:07:02;;;;;;;2.30;2.00;;;;;;;18.87;53.59;100043.97;5050084;28;20025;-39
2021/10/17 10:09:28;;;;;;;2.28;2.08;;;;;;;18.52;53.91;100039.72;5049672;28;20017;-39
2021/10/17 10:11:53;;;;;;;4.75;2.38;;;;;;;18.42;54.34;100036.88;5031964;28;20037;-38
2021/10/17 10:14:19;;;;;;;4.07;2.70;;;;;;;19.34;51.83;100028.06;5049317;28;20021;-38
2021/10/17 10:16:44;;;;;;;3.72;2.38;;;;;;;19.76;50.54;100031.16;5048025;28;20185;-38
2021/10/17 10:19:12;;;;;;;4.60;2.67;;;;;;;19.68;50.56;100029.69;5048121;28;20036;-38
2021/10/17 10:21:38;;;;;;;3.88;2.17;;;;;;;19.53;50.16;100025.81;5049572;28;20020;-38
2021/10/17 10:24:07;;;;;;;2.70;2.28;;;;;;;19.48;50.83;100023.06;5049541;28;20446;-39
2021/10/17 10:26:33;;;;;;;4.25;2.45;;;;;;;19.13;52.96;100021.63;5049797;28;20033;-38
2021/10/17 10:28:59;;;;;;;2.75;2.17;;;;;;;19.30;52.11;100013.41;5031543;28;20103;-38
2021/10/17 10:31:42;;;;;;;2.20;1.90;;;;;;;20.31;49.86;100008.31;5049778;28;20158;-39
2021/10/17 10:34:08;;;;;;;5.75;2.20;;;;;;;20.50;48.02;100012.22;5050030;28;20448;-47
2021/10/17 10:36:38;;;;;;;6.70;3.35;;;;;;;20.50;48.35;100009.50;5049097;28;20528;-49
2021/10/17 10:39:05;;;;;;;4.43;3.60;;;;;;;20.93;45.26;100003.22;5049262;28;20028;-46
2021/10/17 10:41:31;;;;;;;4.13;1.80;;;;;;;20.42;45.56;100003.78;5048398;28;20389;-47
2021/10/17 10:44:26;;;;;;;2.15;1.90;;;;;;;19.81;49.53;100009.59;5031583;28;20496;-49
2021/10/17 10:46:54;;;;;;;4.50;2.38;;;;;;;19.88;50.05;100002.91;5051397;28;20032;-49
2021/10/17 10:49:48;;;;;;;4.50;2.17;;;;;;;20.87;47.50;100000.50;5069787;28;20480;-46
2021/10/17 10:52:29;;;;;;;2.63;2.15;;;;;;;20.82;46.28;100002.38;5063480;28;20082;-47
2021/10/17 10:54:58;;;;;;;2.20;2.00;;;;;;;20.17;46.87;99999.06;5049602;28;20025;-38
2021/10/17 10:57:25;;;;;;;2.72;2.25;;;;;;;20.80;47.94;100001.81;5049658;28;20114;-38
2021/10/17 11:00:00;;;;;;;2.53;2.10;;;;;;;20.05;46.24;100004.66;5050088;28;20025;-38
2021/10/17 11:02:27;;;;;;;2.45;2.17;;;;;;;20.05;46.87;99997.34;5049317;28;20112;-39
2021/10/17 11:04:52;;;;;;;2.50;2.15;;;;;;;20.73;46.40;99996.63;5049465;28;20541;-38
2021/10/17 11:07:46;;;;;;;3.17;2.00;;;;;;;20.54;46.47;99990.84;5049830;28;20216;-38
2021/10/17 11:10:27;;;;;;;2.88;1.90;;;;;;;20.55;45.91;99994.38;5049950;28;20033;-38
2021/10/17 11:12:56;;;;;;;3.28;1.70;;;;;;;21.76;46.75;99988.72;5049951;28;20036;-38
2021/10/17 11:15:29;;;;;;;;;;;;;;;21.51;41.46;99984.94;5050311;28;20374;-38
2021/10/17 11:17:56;;;;;;;2.35;1.90;;;;;;;20.90;44.95;99985.63;5049601;28;19932;-38
2021/10/17 11:20:26;;;;;;;2.58;1.98;;;;;;;22.24;44.66;99986.50;5047992;28;20520;-49
2021/10/17 11:22:54;;;;;;;4.43;2.30;;;;;;;21.57;44.23;99978.47;5048836;28;20041;-46
2021/10/17 11:25:19;;;;;;;2.63;2.00;;;;;;;21.67;44.71;99978.44;5049049;28;20527;-48
2021/10/17 11:27:46;;;;;;;2.00;1.70;;;;;;;22.41;44.03;99983.50;5046332;28;20025;-47